createdAt,value
2023-05-10T00:00:29.542Z,13.47
2023-05-10T00:03:10.028Z,13.42
2023-05-10T00:05:36.988Z,13.38
2023-05-10T00:08:04.394Z,13.33
2023-05-10T00:10:31.361Z,13.34
2023-05-10T00:12:58.683Z,13.34
2023-05-10T00:15:25.655Z,13.29
2023-05-10T00:17:53.011Z,13.26
2023-05-10T00:20:20.105Z,13.25
2023-05-10T00:22:47.455Z,13.18
2023-05-10T00:25:14.379Z,13.14
2023-05-10T00:27:41.877Z,13.05
2023-05-10T00:30:09.653Z,12.98
2023-05-10T00:32:37.176Z,12.92
2023-05-10T00:35:04.619Z,12.89
2023-05-10T00:37:31.986Z,12.85
2023-05-10T00:39:59.256Z,12.82
2023-05-10T00:42:26.634Z,12.78
2023-05-10T00:44:53.594Z,12.82
2023-05-10T00:47:20.953Z,12.76
2023-05-10T00:49:48.288Z,12.74
2023-05-10T00:52:15.849Z,12.70
2023-05-10T00:54:43.331Z,12.67
2023-05-10T00:57:11.105Z,12.61
2023-05-10T00:59:38.204Z,12.58
2023-05-10T01:02:06.963Z,12.57
2023-05-10T01:04:34.470Z,12.52
2023-05-10T01:07:02.208Z,12.46
2023-05-10T01:09:29.362Z,12.42
2023-05-10T01:11:57.842Z,12.40
2023-05-10T01:14:26.752Z,12.32
2023-05-10T01:16:55.003Z,12.31
2023-05-10T01:19:29.374Z,12.26
2023-05-10T01:22:57.663Z,12.20
2023-05-10T01:26:14.261Z,12.23
2023-05-10T01:29:09.365Z,12.19
2023-05-10T01:32:05.465Z,12.16
2023-05-10T01:34:52.861Z,12.12
2023-05-10T01:37:32.374Z,12.12
2023-05-10T01:40:17.043Z,12.02
2023-05-10T01:43:02.252Z,12.00
2023-05-10T01:46:12.753Z,12.01
2023-05-10T01:48:53.001Z,12.03
2023-05-10T01:51:27.238Z,11.98
2023-05-10T01:54:03.507Z,12.01
2023-05-10T01:56:34.247Z,12.00
2023-05-10T01:59:09.945Z,12.01
2023-05-10T02:01:39.899Z,11.99
2023-05-10T02:04:10.612Z,11.95
2023-05-10T02:06:42.239Z,11.92
2023-05-10T02:09:12.667Z,11.93
2023-05-10T02:11:42.668Z,11.95
2023-05-10T02:14:12.632Z,11.94
2023-05-10T02:16:42.202Z,11.93
2023-05-10T02:19:11.459Z,11.94
2023-05-10T02:21:41.378Z,11.98
2023-05-10T02:24:11.749Z,12.01
2023-05-10T02:26:40.602Z,12.05
2023-05-10T02:29:10.168Z,12.04
2023-05-10T02:31:39.873Z,11.95
2023-05-10T02:34:09.999Z,11.95
2023-05-10T02:36:39.864Z,11.93
2023-05-10T02:39:13.794Z,11.87
2023-05-10T02:41:44.461Z,11.85
2023-05-10T02:44:15.302Z,11.85
2023-05-10T02:46:42.605Z,11.84
2023-05-10T02:49:09.526Z,11.81
2023-05-10T02:51:52.047Z,11.73
2023-05-10T02:54:30.609Z,11.70
2023-05-10T02:57:04.995Z,11.70
2023-05-10T02:59:33.605Z,11.69
2023-05-10T03:02:03.080Z,11.67
2023-05-10T03:04:30.171Z,11.68
2023-05-10T03:06:57.700Z,11.69
2023-05-10T03:09:24.809Z,11.69
2023-05-10T03:12:24.217Z,11.70
2023-05-10T03:15:23.494Z,11.69
2023-05-10T03:18:03.208Z,11.74
2023-05-10T03:20:44.253Z,11.77
2023-05-10T03:23:47.308Z,11.75
2023-05-10T03:26:24.638Z,11.73
2023-05-10T03:28:54.320Z,11.72
2023-05-10T03:31:22.035Z,11.75
2023-05-10T03:33:51.423Z,11.79
2023-05-10T03:36:19.404Z,11.81
2023-05-10T03:38:46.851Z,11.88
2023-05-10T03:41:13.974Z,11.90
2023-05-10T03:43:42.224Z,11.95
2023-05-10T03:46:09.230Z,11.95
2023-05-10T03:48:36.806Z,11.90
2023-05-10T03:51:04.008Z,11.91
2023-05-10T03:53:31.200Z,11.82
2023-05-10T03:55:58.187Z,11.71
2023-05-10T03:58:25.493Z,11.74
2023-05-10T04:00:53.487Z,11.67
2023-05-10T04:03:21.362Z,11.67
2023-05-10T04:05:48.542Z,11.67
2023-05-10T04:08:17.509Z,11.62
2023-05-10T04:10:44.628Z,11.64
2023-05-10T04:13:12.323Z,11.63
2023-05-10T04:15:39.330Z,11.66
2023-05-10T04:18:08.884Z,11.68
2023-05-10T04:20:36.089Z,11.72
2023-05-10T04:23:03.418Z,11.77
2023-05-10T04:25:30.334Z,11.82
2023-05-10T04:27:57.624Z,11.83
2023-05-10T04:30:24.931Z,11.89
2023-05-10T04:32:52.124Z,11.94
2023-05-10T04:35:19.193Z,11.97
2023-05-10T04:37:46.406Z,11.96
2023-05-10T04:40:13.970Z,11.94
2023-05-10T04:42:42.449Z,11.98
2023-05-10T04:45:10.726Z,12.06
2023-05-10T04:47:38.379Z,12.11
2023-05-10T04:50:06.377Z,12.17
2023-05-10T04:52:33.882Z,12.32
2023-05-10T04:55:00.847Z,12.52
2023-05-10T04:57:28.237Z,12.61
2023-05-10T04:59:55.389Z,12.67
2023-05-10T05:02:22.763Z,12.72
2023-05-10T05:04:49.897Z,12.77
2023-05-10T05:07:17.278Z,12.91
2023-05-10T05:09:44.245Z,13.05
2023-05-10T05:12:14.979Z,13.13
2023-05-10T05:14:42.327Z,13.26
2023-05-10T05:17:09.773Z,13.33
2023-05-10T05:19:36.837Z,13.42
2023-05-10T05:22:04.126Z,13.56
2023-05-10T05:24:37.692Z,13.64
2023-05-10T05:27:05.737Z,13.81
2023-05-10T05:29:33.112Z,13.95
2023-05-10T05:32:00.683Z,14.11
2023-05-10T05:34:28.022Z,14.24
2023-05-10T05:36:55.373Z,14.33
2023-05-10T05:39:22.427Z,14.35
2023-05-10T05:41:49.681Z,14.37
2023-05-10T05:44:16.655Z,14.46
2023-05-10T05:46:43.849Z,14.46
2023-05-10T05:49:10.966Z,14.43
2023-05-10T05:51:38.324Z,14.44
2023-05-10T05:54:05.691Z,14.48
2023-05-10T05:56:32.919Z,14.56
2023-05-10T05:58:59.839Z,14.57
2023-05-10T06:01:27.144Z,14.49
2023-05-10T06:03:54.326Z,14.61
2023-05-10T06:06:21.573Z,14.66
2023-05-10T06:08:48.557Z,14.76
2023-05-10T06:11:15.912Z,14.70
2023-05-10T06:13:43.441Z,14.71
2023-05-10T06:16:10.689Z,14.76
2023-05-10T06:18:37.889Z,14.83
2023-05-10T06:21:05.389Z,14.88
2023-05-10T06:23:32.590Z,14.94
2023-05-10T06:25:59.971Z,15.02
2023-05-10T06:28:26.825Z,15.08
2023-05-10T06:30:54.243Z,15.16
2023-05-10T06:33:21.170Z,15.18
2023-05-10T06:35:48.511Z,15.19
2023-05-10T06:38:16.240Z,15.24
2023-05-10T06:40:44.414Z,15.20
2023-05-10T06:43:11.758Z,15.18
2023-05-10T06:45:39.074Z,15.28
2023-05-10T06:48:06.480Z,15.37
2023-05-10T06:50:34.292Z,15.48
2023-05-10T06:53:02.880Z,15.55
2023-05-10T06:55:30.384Z,15.69
2023-05-10T06:57:57.571Z,15.80
2023-05-10T07:00:25.026Z,15.92
2023-05-10T07:02:52.261Z,16.04
2023-05-10T07:05:20.084Z,16.10
2023-05-10T07:07:47.379Z,16.14
2023-05-10T07:10:15.026Z,16.13
2023-05-10T07:12:42.208Z,15.94
2023-05-10T07:15:10.272Z,15.91
2023-05-10T07:17:37.448Z,16.02
2023-05-10T07:20:05.397Z,16.10
2023-05-10T07:22:32.415Z,15.95
2023-05-10T07:24:59.765Z,15.95
2023-05-10T07:27:26.946Z,16.12
2023-05-10T07:29:54.132Z,16.39
2023-05-10T07:32:21.351Z,16.36
2023-05-10T07:34:48.749Z,16.28
2023-05-10T07:37:15.732Z,16.53
2023-05-10T07:39:42.929Z,16.53
2023-05-10T07:42:09.928Z,16.71
2023-05-10T07:44:37.081Z,16.76
2023-05-10T07:47:04.110Z,16.94
2023-05-10T07:49:31.355Z,17.03
2023-05-10T07:51:58.391Z,17.06
2023-05-10T07:54:25.739Z,17.19
2023-05-10T07:56:52.796Z,17.24
2023-05-10T07:59:20.150Z,17.26
2023-05-10T08:01:47.209Z,17.40
2023-05-10T08:04:14.563Z,17.28
2023-05-10T08:06:41.821Z,17.40
2023-05-10T08:09:10.116Z,17.48
2023-05-10T08:11:38.474Z,17.58
2023-05-10T08:14:05.822Z,17.62
2023-05-10T08:16:33.545Z,17.66
2023-05-10T08:19:01.020Z,17.47
2023-05-10T08:21:28.115Z,17.72
2023-05-10T08:23:55.391Z,17.91
2023-05-10T08:26:22.705Z,18.01
2023-05-10T08:28:50.080Z,18.10
2023-05-10T08:31:17.320Z,18.17
2023-05-10T08:33:44.949Z,18.11
2023-05-10T08:36:15.155Z,18.18
2023-05-10T08:38:42.526Z,18.30
2023-05-10T08:41:11.111Z,18.17
2023-05-10T08:43:40.150Z,18.24
2023-05-10T08:46:11.580Z,18.43
2023-05-10T08:48:40.490Z,18.50
2023-05-10T08:51:10.543Z,18.57
2023-05-10T08:53:38.691Z,18.69
2023-05-10T08:56:06.273Z,18.74
2023-05-10T08:58:34.174Z,18.79
2023-05-10T09:01:02.267Z,18.83
2023-05-10T09:03:30.418Z,18.73
2023-05-10T09:05:57.944Z,18.81
2023-05-10T09:08:27.575Z,18.50
2023-05-10T09:10:56.526Z,18.75
2023-05-10T09:13:25.740Z,18.94
2023-05-10T09:15:54.694Z,19.06
2023-05-10T09:18:21.952Z,18.94
2023-05-10T09:20:50.397Z,19.21
2023-05-10T09:23:17.557Z,19.27
2023-05-10T09:25:44.524Z,19.35
2023-05-10T09:28:12.973Z,19.37
2023-05-10T09:30:40.424Z,19.50
2023-05-10T09:33:08.066Z,19.52
2023-05-10T09:35:35.230Z,19.58
2023-05-10T09:38:06.015Z,19.70
2023-05-10T09:40:33.427Z,19.82
2023-05-10T09:43:11.767Z,19.77
2023-05-10T09:45:39.388Z,19.94
2023-05-10T09:48:07.704Z,20.03
2023-05-10T09:50:35.391Z,20.17
2023-05-10T09:53:04.953Z,20.14
2023-05-10T09:55:45.928Z,20.24
2023-05-10T09:58:15.230Z,20.40
2023-05-10T10:00:52.647Z,20.47
2023-05-10T10:03:22.248Z,20.48
2023-05-10T10:05:50.165Z,20.40
2023-05-10T10:08:18.753Z,20.39
2023-05-10T10:10:47.165Z,20.37
2023-05-10T10:13:15.859Z,20.46
2023-05-10T10:15:45.229Z,20.40
2023-05-10T10:18:16.304Z,20.48
2023-05-10T10:20:44.014Z,20.64
2023-05-10T10:23:10.905Z,20.61
2023-05-10T10:25:39.845Z,20.61
2023-05-10T10:28:35.842Z,20.70
2023-05-10T10:31:46.586Z,20.81
2023-05-10T10:34:31.571Z,20.92
2023-05-10T10:37:04.693Z,21.07
2023-05-10T10:39:32.294Z,21.20
2023-05-10T10:42:00.310Z,21.32
2023-05-10T10:44:35.867Z,21.37
2023-05-10T10:47:15.451Z,21.38
2023-05-10T10:49:42.585Z,21.45
2023-05-10T10:52:30.257Z,21.58
2023-05-10T10:55:07.210Z,21.60
2023-05-10T10:57:45.866Z,21.55
2023-05-10T11:00:30.264Z,21.32
2023-05-10T11:03:07.479Z,21.55
2023-05-10T11:05:36.049Z,21.66
2023-05-10T11:08:26.885Z,21.45
2023-05-10T11:10:59.883Z,21.66
2023-05-10T11:13:51.827Z,21.70
2023-05-10T11:16:25.927Z,21.48
2023-05-10T11:19:10.522Z,21.47
2023-05-10T11:21:51.719Z,21.81
2023-05-10T11:24:23.370Z,21.70
2023-05-10T11:26:54.927Z,21.88
2023-05-10T11:29:22.299Z,22.17
2023-05-10T11:31:50.619Z,22.38
2023-05-10T11:34:30.567Z,22.49
2023-05-10T11:36:58.436Z,22.47
2023-05-10T11:39:31.709Z,22.42
2023-05-10T11:42:01.244Z,22.34
2023-05-10T11:44:34.740Z,22.22
2023-05-10T11:47:02.956Z,22.49
2023-05-10T11:49:30.460Z,22.59
2023-05-10T11:52:12.125Z,22.67
2023-05-10T11:54:46.361Z,22.95
2023-05-10T11:57:13.302Z,23.07
2023-05-10T11:59:43.023Z,23.19
2023-05-10T12:02:11.355Z,23.23
2023-05-10T12:04:39.298Z,23.25
2023-05-10T12:07:06.731Z,23.27
2023-05-10T12:09:43.062Z,23.30
2023-05-10T12:12:11.632Z,23.34
2023-05-10T12:14:38.964Z,23.31
2023-05-10T12:17:06.084Z,23.05
2023-05-10T12:19:40.825Z,22.97
2023-05-10T12:22:08.104Z,22.97
2023-05-10T12:24:41.143Z,22.86
2023-05-10T12:27:10.364Z,22.47
2023-05-10T12:29:37.966Z,22.60
2023-05-10T12:32:05.287Z,22.49
2023-05-10T12:34:40.001Z,22.50
2023-05-10T12:37:07.178Z,22.49
2023-05-10T12:39:47.198Z,22.38
2023-05-10T12:42:14.207Z,22.39
2023-05-10T12:44:41.538Z,22.19
2023-05-10T12:47:08.677Z,21.99
2023-05-10T12:49:36.520Z,22.04
2023-05-10T12:52:03.708Z,22.14
2023-05-10T12:54:30.990Z,22.09
2023-05-10T12:56:57.975Z,22.00
2023-05-10T12:59:25.433Z,21.96
2023-05-10T13:01:52.552Z,22.14
2023-05-10T13:04:19.726Z,22.12
2023-05-10T13:06:46.957Z,22.17
2023-05-10T13:09:15.285Z,22.26
2023-05-10T13:11:42.544Z,22.28
2023-05-10T13:14:09.866Z,22.25
2023-05-10T13:16:36.838Z,22.16
2023-05-10T13:19:04.160Z,22.12
2023-05-10T13:21:31.447Z,22.21
2023-05-10T13:23:59.095Z,22.25
2023-05-10T13:26:26.586Z,22.32
2023-05-10T13:28:54.013Z,22.31
2023-05-10T13:31:21.652Z,22.32
2023-05-10T13:33:48.908Z,22.41
2023-05-10T13:36:15.947Z,22.47
2023-05-10T13:38:43.214Z,22.51
2023-05-10T13:41:10.193Z,22.39
2023-05-10T13:43:37.504Z,22.18
2023-05-10T13:46:04.588Z,22.26
2023-05-10T13:48:31.916Z,22.18
2023-05-10T13:50:58.852Z,22.34
2023-05-10T13:53:26.297Z,22.42
2023-05-10T13:55:53.198Z,22.30
2023-05-10T13:58:20.374Z,22.28
2023-05-10T14:00:47.360Z,22.40
2023-05-10T14:03:14.686Z,22.50
2023-05-10T14:05:41.655Z,22.53
2023-05-10T14:08:10.471Z,22.60
2023-05-10T14:10:38.010Z,22.63
2023-05-10T14:13:05.267Z,22.65
2023-05-10T14:15:32.956Z,22.54
2023-05-10T14:18:00.608Z,22.47
2023-05-10T14:20:27.534Z,22.47
2023-05-10T14:22:54.722Z,22.43
2023-05-10T14:25:21.796Z,22.43
2023-05-10T14:27:49.003Z,22.43
2023-05-10T14:30:16.202Z,22.33
2023-05-10T14:32:44.067Z,22.34
2023-05-10T14:35:13.120Z,22.31
2023-05-10T14:37:40.757Z,22.34
2023-05-10T14:40:08.499Z,22.34
2023-05-10T14:42:36.078Z,22.25
2023-05-10T14:45:03.665Z,22.20
2023-05-10T14:47:31.223Z,22.18
2023-05-10T14:49:59.268Z,22.19
2023-05-10T14:52:26.811Z,22.19
2023-05-10T14:54:53.786Z,22.18
2023-05-10T14:57:20.970Z,22.19
2023-05-10T14:59:47.911Z,22.14
2023-05-10T15:02:15.657Z,22.14
2023-05-10T15:04:42.972Z,22.11
2023-05-10T15:07:10.578Z,22.05
2023-05-10T15:09:37.745Z,22.09
2023-05-10T15:12:05.002Z,22.02
2023-05-10T15:14:32.481Z,22.04
2023-05-10T15:17:00.824Z,22.01
2023-05-10T15:19:27.751Z,22.05
2023-05-10T15:21:55.002Z,21.98
2023-05-10T15:24:22.859Z,21.90
2023-05-10T15:26:49.998Z,21.87
2023-05-10T15:29:20.762Z,21.81
2023-05-10T15:31:52.346Z,21.75
2023-05-10T15:34:20.033Z,21.74
2023-05-10T15:36:47.286Z,21.66
2023-05-10T15:39:14.302Z,21.54
2023-05-10T15:41:41.966Z,21.45
2023-05-10T15:44:09.011Z,21.38
2023-05-10T15:46:36.385Z,21.30
2023-05-10T15:49:03.712Z,21.23
2023-05-10T15:51:31.186Z,21.20
2023-05-10T15:54:07.071Z,21.11
2023-05-10T15:56:35.850Z,21.05
2023-05-10T15:59:03.870Z,21.03
2023-05-10T16:01:32.538Z,20.95
2023-05-10T16:03:59.796Z,20.94
2023-05-10T16:06:27.443Z,20.98
2023-05-10T16:08:54.781Z,21.01
2023-05-10T16:11:22.485Z,20.99
2023-05-10T16:13:49.511Z,20.98
2023-05-10T16:16:17.210Z,20.95
2023-05-10T16:18:44.398Z,20.97
2023-05-10T16:21:11.891Z,20.96
2023-05-10T16:23:38.870Z,20.99
2023-05-10T16:26:06.063Z,20.98
2023-05-10T16:28:33.169Z,21.04
2023-05-10T16:31:00.485Z,21.09
2023-05-10T16:33:27.447Z,21.13
2023-05-10T16:35:54.761Z,21.16
2023-05-10T16:38:21.929Z,21.27
2023-05-10T16:40:49.466Z,21.31
2023-05-10T16:43:16.576Z,21.45
2023-05-10T16:45:43.930Z,21.63
2023-05-10T16:48:10.929Z,21.87
2023-05-10T16:50:38.138Z,22.12
2023-05-10T16:53:05.323Z,22.27
2023-05-10T16:55:32.704Z,22.41
2023-05-10T16:58:01.052Z,22.54
2023-05-10T17:00:28.300Z,22.62
2023-05-10T17:02:55.858Z,22.74
2023-05-10T17:05:23.292Z,22.76
2023-05-10T17:07:50.574Z,22.58
2023-05-10T17:10:18.030Z,22.36
2023-05-10T17:12:45.890Z,22.20
2023-05-10T17:15:13.311Z,22.07
2023-05-10T17:17:40.383Z,21.92
2023-05-10T17:20:08.810Z,21.79
2023-05-10T17:22:36.192Z,21.70
2023-05-10T17:25:04.286Z,21.55
2023-05-10T17:27:31.629Z,21.46
2023-05-10T17:29:59.717Z,21.33
2023-05-10T17:32:26.872Z,21.26
2023-05-10T17:34:54.195Z,21.22
2023-05-10T17:37:21.179Z,21.21
2023-05-10T17:39:48.500Z,21.12
2023-05-10T17:42:17.610Z,21.11
2023-05-10T17:44:44.956Z,21.05
2023-05-10T17:47:12.009Z,20.98
2023-05-10T17:49:39.911Z,20.95
2023-05-10T17:52:07.484Z,20.94
2023-05-10T17:54:35.206Z,20.89
2023-05-10T17:57:03.692Z,20.89
2023-05-10T17:59:31.005Z,20.83
2023-05-10T18:01:58.123Z,20.70
2023-05-10T18:04:26.106Z,20.61
2023-05-10T18:07:01.020Z,20.53
2023-05-10T18:09:28.973Z,20.44
2023-05-10T18:11:56.308Z,20.32
2023-05-10T18:14:39.025Z,20.20
2023-05-10T18:17:08.123Z,20.12
2023-05-10T18:19:35.680Z,20.00
2023-05-10T18:22:02.888Z,19.88
2023-05-10T18:24:38.815Z,19.79
2023-05-10T18:27:08.966Z,19.66
2023-05-10T18:29:37.023Z,19.57
2023-05-10T18:32:04.241Z,19.53
2023-05-10T18:34:31.537Z,19.52
2023-05-10T18:36:59.231Z,19.48
2023-05-10T18:39:26.510Z,19.42
2023-05-10T18:41:53.710Z,19.41
2023-05-10T18:44:22.011Z,19.39
2023-05-10T18:46:49.101Z,19.37
2023-05-10T18:49:16.441Z,19.33
2023-05-10T18:51:43.593Z,19.22
2023-05-10T18:54:10.827Z,19.16
2023-05-10T18:56:40.056Z,19.08
2023-05-10T18:59:07.278Z,19.03
2023-05-10T19:01:34.253Z,18.99
2023-05-10T19:04:01.641Z,18.90
2023-05-10T19:06:28.713Z,18.86
2023-05-10T19:08:56.005Z,18.82
2023-05-10T19:11:23.336Z,18.79
2023-05-10T19:13:50.681Z,18.75
2023-05-10T19:16:18.299Z,18.64
2023-05-10T19:18:46.733Z,18.59
2023-05-10T19:21:13.835Z,18.56
2023-05-10T19:23:42.063Z,18.52
2023-05-10T19:26:11.173Z,18.46
2023-05-10T19:28:38.695Z,18.36
2023-05-10T19:31:06.289Z,18.27
2023-05-10T19:33:34.321Z,18.22
2023-05-10T19:36:01.223Z,18.19
2023-05-10T19:38:28.462Z,18.14
2023-05-10T19:40:58.304Z,18.12
2023-05-10T19:43:32.829Z,18.11
2023-05-10T19:46:04.761Z,18.08
2023-05-10T19:48:32.434Z,18.05
2023-05-10T19:51:02.151Z,18.08
2023-05-10T19:53:30.620Z,18.04
2023-05-10T19:56:04.730Z,18.00
2023-05-10T19:58:33.378Z,18.00
2023-05-10T20:01:00.499Z,17.98
2023-05-10T20:03:28.562Z,17.94
2023-05-10T20:05:55.721Z,17.87
2023-05-10T20:08:23.049Z,17.83
2023-05-10T20:10:50.147Z,17.78
2023-05-10T20:13:18.073Z,17.73
2023-05-10T20:15:46.611Z,17.69
2023-05-10T20:18:13.939Z,17.62
2023-05-10T20:20:41.227Z,17.60
2023-05-10T20:23:08.807Z,17.56
2023-05-10T20:25:36.221Z,17.57
2023-05-10T20:28:03.840Z,17.59
2023-05-10T20:30:32.598Z,17.61
2023-05-10T20:33:04.295Z,17.63
2023-05-10T20:35:33.654Z,17.66
2023-05-10T20:38:02.172Z,17.66
2023-05-10T20:40:29.151Z,17.65
2023-05-10T20:42:56.520Z,17.59
2023-05-10T20:45:23.511Z,17.58
2023-05-10T20:47:50.844Z,17.58
2023-05-10T20:50:18.112Z,17.58
2023-05-10T20:52:45.712Z,17.62
2023-05-10T20:55:12.847Z,17.64
2023-05-10T20:57:40.244Z,17.54
2023-05-10T21:00:09.461Z,17.57
2023-05-10T21:02:36.985Z,17.56
2023-05-10T21:05:05.330Z,17.59
2023-05-10T21:07:32.979Z,17.61
2023-05-10T21:09:59.990Z,17.61
2023-05-10T21:12:27.172Z,17.64
2023-05-10T21:14:54.290Z,17.63
2023-05-10T21:17:23.159Z,17.64
2023-05-10T21:19:51.206Z,17.67
2023-05-10T21:22:20.868Z,17.66
2023-05-10T21:24:48.060Z,17.62
2023-05-10T21:27:15.368Z,17.64
2023-05-10T21:29:42.915Z,17.63
2023-05-10T21:32:12.435Z,17.63
2023-05-10T21:34:39.956Z,17.65
2023-05-10T21:37:07.326Z,17.64
2023-05-10T21:39:34.407Z,17.61
2023-05-10T21:42:02.068Z,17.63
2023-05-10T21:44:29.561Z,17.59
2023-05-10T21:46:56.732Z,17.59
2023-05-10T21:49:23.684Z,17.60
2023-05-10T21:51:51.195Z,17.62
2023-05-10T21:54:18.396Z,17.58
2023-05-10T21:56:45.775Z,17.59
2023-05-10T21:59:12.765Z,17.63
2023-05-10T22:01:40.118Z,17.59
2023-05-10T22:04:07.154Z,17.60
2023-05-10T22:06:34.832Z,17.63
2023-05-10T22:09:02.190Z,17.66
2023-05-10T22:11:29.679Z,17.68
2023-05-10T22:13:57.076Z,17.72
2023-05-10T22:16:39.451Z,17.73
2023-05-10T22:19:06.983Z,17.77
2023-05-10T22:21:34.350Z,17.78
2023-05-10T22:24:01.576Z,17.81
2023-05-10T22:26:28.821Z,17.84
2023-05-10T22:28:56.179Z,17.82
2023-05-10T22:31:23.680Z,17.86
2023-05-10T22:33:50.881Z,17.83
2023-05-10T22:36:18.245Z,17.82
2023-05-10T22:38:46.008Z,17.81
2023-05-10T22:41:13.342Z,17.80
2023-05-10T22:43:40.336Z,17.80
2023-05-10T22:46:07.761Z,17.81
2023-05-10T22:48:35.878Z,17.80
2023-05-10T22:51:03.844Z,17.81
2023-05-10T22:53:31.271Z,17.81
2023-05-10T22:55:58.686Z,17.80
2023-05-10T22:58:26.771Z,17.81
2023-05-10T23:00:55.617Z,17.80
2023-05-10T23:03:23.005Z,17.81
2023-05-10T23:05:50.463Z,17.76
2023-05-10T23:08:17.526Z,17.76
2023-05-10T23:10:44.818Z,17.69
2023-05-10T23:13:11.867Z,17.71
2023-05-10T23:15:40.233Z,17.69
2023-05-10T23:18:10.340Z,17.66
2023-05-10T23:20:37.592Z,17.61
2023-05-10T23:23:04.606Z,17.63
2023-05-10T23:25:31.801Z,17.61
2023-05-10T23:27:58.762Z,17.60
2023-05-10T23:30:30.085Z,17.59
2023-05-10T23:32:57.827Z,17.56
2023-05-10T23:35:25.030Z,17.54
2023-05-10T23:37:52.300Z,17.50
2023-05-10T23:40:19.916Z,17.50
2023-05-10T23:42:47.312Z,17.50
2023-05-10T23:45:14.586Z,17.48
2023-05-10T23:47:41.727Z,17.43
2023-05-10T23:50:10.700Z,17.39
2023-05-10T23:52:37.776Z,17.40
2023-05-10T23:55:05.575Z,17.40
2023-05-10T23:57:33.582Z,17.41
